Frem Nordica — OVIL2 — position and weather

sailwx.info

Track history (hours):
 
Tides and Currents Weather Stations Pressure Air Temp Water Temp Dewpoint Dewpoint Depression Visibility Wind Speed Wind Dir Waves Ship Positions

Frem Nordica

Last reported at 2016-Sep-24 03:28 UTC. Time now 2016-Sep-26 13:55 UTC.
Position N 55°01' E 019°12'.

Length 79 m; draft 2.6 m.

Type: Ship. MMSI: 220439000.

Date/timePositionNaut miles runAvg speedWind from/ knotsBaromVisibWave heightAir tempDewpointWater temp
2016-Sep-24 03:28N 55°01' E 019°12'5 5.5
2016-Sep-24 02:33N 54°56' E 019°16'5 5.5
2016-Sep-24 01:33N 54°51' E 019°21'6 6.0
2016-Sep-24 00:33N 54°47' E 019°28'14 0.6
2016-Sep-23 00:33N 54°40' E 019°49'4 3.9
2016-Sep-22 23:33N 54°42' E 019°43'12 4.1
2016-Sep-22 20:33N 54°47' E 019°23'159 8.0
2016-Sep-22 00:33N 54°56' E 014°47'9 8.7
2016-Sep-21 23:33N 55°00' E 014°33'8 8.5
2016-Sep-21 22:33N 55°04' E 014°20'114 3.9
2016-Sep-20 17:33N 54°39' E 011°06'25 8.2
2016-Sep-20 14:33N 54°46' E 010°25'10 0.7
2016-Sep-19 23:33N 54°41' E 010°42'37 9.2
2016-Sep-19 19:33N 54°31' E 011°42'9 8.7
2016-Sep-19 18:33N 54°30' E 011°57'  
2016-Sep-17 09:03N 55°12' E 012°16'2 1.0
2016-Sep-17 07:27N 55°11' E 012°14'14 2.0
2016-Sep-17 00:34N 55°21' E 012°32'46 6.6
2016-Sep-16 17:33N 56°07' E 012°30'55 3.9
2016-Sep-16 03:32N 56°25' E 010°56'0 0.0
2016-Sep-16 00:23N 56°25' E 010°56'75 3.8
2016-Sep-15 04:33N 55°45' E 012°50'8 8.1
2016-Sep-15 03:33N 55°38' E 012°54'18 9.2
2016-Sep-15 01:34N 55°24' E 012°32'17 1.4
2016-Sep-14 13:28N 55°13' E 012°10'0 0.1
2016-Sep-14 12:28N 55°13' E 012°10'0 0.0
2016-Sep-14 10:28N 55°13' E 012°10'0 0.0
2016-Sep-14 09:22N 55°13' E 012°10'0 0.0
2016-Sep-14 08:28N 55°13' E 012°10'4 4.1
2016-Sep-14 07:33N 55°10' E 012°15'1 0.9
2016-Sep-14 06:33N 55°10' E 012°16'3 1.0
2016-Sep-14 03:33N 55°09' E 012°22'  
Track history (hours):
 
Tides and Currents Weather Stations Pressure Air Temp Water Temp Dewpoint Dewpoint Depression Visibility Wind Speed Wind Dir Waves Ship Positions

Frem Nordica

Last reported at 2016-Sep-24 03:28 UTC. Time now 2016-Sep-26 13:55 UTC.
Position N 55°01' E 019°12'.

Length 79 m; draft 2.6 m.

Type: Ship. MMSI: 220439000.

Date/timePositionNaut miles runAvg speedWind from/ knotsBaromVisibWave heightAir tempDewpointWater temp
2016-Sep-24 03:28N 55°01' E 019°12'5 5.5
2016-Sep-24 02:33N 54°56' E 019°16'5 5.5
2016-Sep-24 01:33N 54°51' E 019°21'6 6.0
2016-Sep-24 00:33N 54°47' E 019°28'14 0.6
2016-Sep-23 00:33N 54°40' E 019°49'4 3.9
2016-Sep-22 23:33N 54°42' E 019°43'12 4.1
2016-Sep-22 20:33N 54°47' E 019°23'159 8.0
2016-Sep-22 00:33N 54°56' E 014°47'9 8.7
2016-Sep-21 23:33N 55°00' E 014°33'8 8.5
2016-Sep-21 22:33N 55°04' E 014°20'114 3.9
2016-Sep-20 17:33N 54°39' E 011°06'25 8.2
2016-Sep-20 14:33N 54°46' E 010°25'10 0.7
2016-Sep-19 23:33N 54°41' E 010°42'37 9.2
2016-Sep-19 19:33N 54°31' E 011°42'9 8.7
2016-Sep-19 18:33N 54°30' E 011°57'  
2016-Sep-17 09:03N 55°12' E 012°16'2 1.0
2016-Sep-17 07:27N 55°11' E 012°14'14 2.0
2016-Sep-17 00:34N 55°21' E 012°32'46 6.6
2016-Sep-16 17:33N 56°07' E 012°30'55 3.9
2016-Sep-16 03:32N 56°25' E 010°56'0 0.0
2016-Sep-16 00:23N 56°25' E 010°56'75 3.8
2016-Sep-15 04:33N 55°45' E 012°50'8 8.1
2016-Sep-15 03:33N 55°38' E 012°54'18 9.2
2016-Sep-15 01:34N 55°24' E 012°32'17 1.4
2016-Sep-14 13:28N 55°13' E 012°10'0 0.1
2016-Sep-14 12:28N 55°13' E 012°10'0 0.0
2016-Sep-14 10:28N 55°13' E 012°10'0 0.0
2016-Sep-14 09:22N 55°13' E 012°10'0 0.0
2016-Sep-14 08:28N 55°13' E 012°10'4 4.1
2016-Sep-14 07:33N 55°10' E 012°15'1 0.9
2016-Sep-14 06:33N 55°10' E 012°16'3 1.0
2016-Sep-14 03:33N 55°09' E 012°22'  

Dump ship's entire track history